sensor_id;sensor_type;location;lat;lon;timestamp;pressure;altitude;pressure_sealevel;temperature;humidity
77023;BME280;65952;51.440;-2.054;2023-09-19T00:01:28;99491.16;;;15.16;66.71
77023;BME280;65952;51.440;-2.054;2023-09-19T00:03:56;99488.34;;;15.04;67.28
77023;BME280;65952;51.440;-2.054;2023-09-19T00:06:22;99486.41;;;15.11;67.23
77023;BME280;65952;51.440;-2.054;2023-09-19T00:08:51;99494.72;;;15.10;67.39
77023;BME280;65952;51.440;-2.054;2023-09-19T00:11:17;99484.97;;;15.09;67.72
77023;BME280;65952;51.440;-2.054;2023-09-19T00:13:42;99482.44;;;15.14;67.24
77023;BME280;65952;51.440;-2.054;2023-09-19T00:16:10;99483.09;;;15.09;67.58
77023;BME280;65952;51.440;-2.054;2023-09-19T00:18:39;99486.69;;;14.97;67.73
77023;BME280;65952;51.440;-2.054;2023-09-19T00:21:05;99485.66;;;14.98;67.96
77023;BME280;65952;51.440;-2.054;2023-09-19T00:23:30;99484.25;;;14.88;68.06
77023;BME280;65952;51.440;-2.054;2023-09-19T00:26:00;99482.94;;;15.04;67.40
77023;BME280;65952;51.440;-2.054;2023-09-19T00:28:26;99490.59;;;15.07;67.30
77023;BME280;65952;51.440;-2.054;2023-09-19T00:30:52;99492.84;;;15.10;66.92
77023;BME280;65952;51.440;-2.054;2023-09-19T00:33:18;99487.66;;;15.09;67.21
77023;BME280;65952;51.440;-2.054;2023-09-19T00:35:54;99493.06;;;15.09;67.11
77023;BME280;65952;51.440;-2.054;2023-09-19T00:38:21;99478.81;;;14.95;67.61
77023;BME280;65952;51.440;-2.054;2023-09-19T00:40:48;99485.41;;;15.06;67.18
77023;BME280;65952;51.440;-2.054;2023-09-19T00:43:14;99488.53;;;15.03;66.94
77023;BME280;65952;51.440;-2.054;2023-09-19T00:45:44;99477.72;;;15.03;67.28
77023;BME280;65952;51.440;-2.054;2023-09-19T00:48:10;99481.63;;;15.14;66.51
77023;BME280;65952;51.440;-2.054;2023-09-19T00:50:37;99475.41;;;15.06;66.67
77023;BME280;65952;51.440;-2.054;2023-09-19T00:53:07;99476.06;;;15.02;66.98
77023;BME280;65952;51.440;-2.054;2023-09-19T00:55:34;99478.50;;;15.10;67.02
77023;BME280;65952;51.440;-2.054;2023-09-19T00:58:00;99473.50;;;15.14;66.94
77023;BME280;65952;51.440;-2.054;2023-09-19T01:00:26;99482.47;;;15.07;66.77
77023;BME280;65952;51.440;-2.054;2023-09-19T01:02:52;99478.25;;;15.18;66.50
77023;BME280;65952;51.440;-2.054;2023-09-19T01:05:17;99474.94;;;15.16;66.85
77023;BME280;65952;51.440;-2.054;2023-09-19T01:07:43;99478.44;;;15.23;66.49
77023;BME280;65952;51.440;-2.054;2023-09-19T01:10:17;99471.59;;;15.21;66.47
77023;BME280;65952;51.440;-2.054;2023-09-19T01:15:49;99474.84;;;15.30;66.14
77023;BME280;65952;51.440;-2.054;2023-09-19T01:21:15;99470.25;;;15.30;66.22
77023;BME280;65952;51.440;-2.054;2023-09-19T01:24:16;99474.06;;;15.22;66.34
77023;BME280;65952;51.440;-2.054;2023-09-19T01:29:48;99461.16;;;15.24;66.13
77023;BME280;65952;51.440;-2.054;2023-09-19T01:32:18;99464.47;;;15.26;66.08
77023;BME280;65952;51.440;-2.054;2023-09-19T01:34:56;99462.91;;;15.12;66.69
77023;BME280;65952;51.440;-2.054;2023-09-19T01:37:24;99464.53;;;15.13;66.72
77023;BME280;65952;51.440;-2.054;2023-09-19T01:40:00;99471.44;;;15.09;66.93
77023;BME280;65952;51.440;-2.054;2023-09-19T01:42:45;99471.72;;;15.01;67.34
77023;BME280;65952;51.440;-2.054;2023-09-19T01:51:03;99478.75;;;15.02;67.52
77023;BME280;65952;51.440;-2.054;2023-09-19T01:53:36;99484.63;;;14.99;67.77
77023;BME280;65952;51.440;-2.054;2023-09-19T01:56:08;99482.53;;;15.01;67.78
77023;BME280;65952;51.440;-2.054;2023-09-19T01:58:41;99483.53;;;15.06;67.65
77023;BME280;65952;51.440;-2.054;2023-09-19T02:01:11;99483.13;;;15.03;67.72
77023;BME280;65952;51.440;-2.054;2023-09-19T02:03:38;99484.66;;;14.92;68.03
77023;BME280;65952;51.440;-2.054;2023-09-19T02:06:05;99473.22;;;14.90;68.25
77023;BME280;65952;51.440;-2.054;2023-09-19T02:08:30;99479.69;;;14.89;68.41
77023;BME280;65952;51.440;-2.054;2023-09-19T02:11:00;99485.47;;;14.92;68.01
77023;BME280;65952;51.440;-2.054;2023-09-19T02:13:25;99478.41;;;14.98;67.93
77023;BME280;65952;51.440;-2.054;2023-09-19T02:15:53;99478.59;;;14.97;67.88
77023;BME280;65952;51.440;-2.054;2023-09-19T02:18:18;99471.97;;;14.92;67.84
77023;BME280;65952;51.440;-2.054;2023-09-19T02:20:44;99475.31;;;14.88;68.07
77023;BME280;65952;51.440;-2.054;2023-09-19T02:23:11;99479.44;;;14.90;68.17
77023;BME280;65952;51.440;-2.054;2023-09-19T02:25:38;99469.53;;;14.84;68.52
77023;BME280;65952;51.440;-2.054;2023-09-19T02:28:05;99466.22;;;14.82;68.28
77023;BME280;65952;51.440;-2.054;2023-09-19T02:30:31;99467.44;;;14.86;68.13
77023;BME280;65952;51.440;-2.054;2023-09-19T02:32:57;99459.31;;;14.86;68.32
77023;BME280;65952;51.440;-2.054;2023-09-19T02:35:22;99459.78;;;14.83;68.33
77023;BME280;65952;51.440;-2.054;2023-09-19T02:37:48;99457.53;;;14.73;68.90
77023;BME280;65952;51.440;-2.054;2023-09-19T02:40:14;99457.53;;;14.73;69.10
77023;BME280;65952;51.440;-2.054;2023-09-19T02:42:55;99456.91;;;14.71;69.25
77023;BME280;65952;51.440;-2.054;2023-09-19T02:45:21;99452.34;;;14.72;68.97
77023;BME280;65952;51.440;-2.054;2023-09-19T02:47:48;99458.56;;;14.72;69.31
77023;BME280;65952;51.440;-2.054;2023-09-19T02:50:14;99456.09;;;14.71;69.13
77023;BME280;65952;51.440;-2.054;2023-09-19T02:52:44;99450.09;;;14.62;69.73
77023;BME280;65952;51.440;-2.054;2023-09-19T02:55:13;99439.69;;;14.59;70.21
77023;BME280;65952;51.440;-2.054;2023-09-19T02:57:40;99433.66;;;14.63;70.00
77023;BME280;65952;51.440;-2.054;2023-09-19T03:00:09;99424.50;;;14.71;69.67
77023;BME280;65952;51.440;-2.054;2023-09-19T03:02:36;99421.19;;;14.62;70.09
77023;BME280;65952;51.440;-2.054;2023-09-19T03:05:03;99410.81;;;14.66;69.95
77023;BME280;65952;51.440;-2.054;2023-09-19T03:07:28;99412.47;;;14.67;70.11
77023;BME280;65952;51.440;-2.054;2023-09-19T03:09:54;99403.66;;;14.78;69.69
77023;BME280;65952;51.440;-2.054;2023-09-19T03:12:20;99396.28;;;14.60;70.29
77023;BME280;65952;51.440;-2.054;2023-09-19T03:14:45;99392.75;;;14.67;70.01
77023;BME280;65952;51.440;-2.054;2023-09-19T03:17:11;99397.53;;;14.65;70.31
77023;BME280;65952;51.440;-2.054;2023-09-19T03:19:36;99378.84;;;14.56;70.50
77023;BME280;65952;51.440;-2.054;2023-09-19T03:22:04;99385.09;;;14.57;70.68
77023;BME280;65952;51.440;-2.054;2023-09-19T03:24:29;99371.13;;;14.67;70.20
77023;BME280;65952;51.440;-2.054;2023-09-19T03:26:57;99387.72;;;14.63;70.57
77023;BME280;65952;51.440;-2.054;2023-09-19T03:29:22;99364.06;;;14.66;70.39
77023;BME280;65952;51.440;-2.054;2023-09-19T03:31:48;99368.78;;;14.77;70.23
77023;BME280;65952;51.440;-2.054;2023-09-19T03:34:13;99357.28;;;14.82;70.17
77023;BME280;65952;51.440;-2.054;2023-09-19T03:36:39;99347.63;;;14.67;70.52
77023;BME280;65952;51.440;-2.054;2023-09-19T03:39:05;99348.69;;;14.91;69.89
77023;BME280;65952;51.440;-2.054;2023-09-19T03:41:31;99334.75;;;14.94;69.64
77023;BME280;65952;51.440;-2.054;2023-09-19T03:43:58;99332.22;;;15.00;69.52
77023;BME280;65952;51.440;-2.054;2023-09-19T03:46:23;99329.03;;;14.84;69.99
77023;BME280;65952;51.440;-2.054;2023-09-19T03:48:50;99326.66;;;14.94;69.67
77023;BME280;65952;51.440;-2.054;2023-09-19T03:51:15;99332.38;;;15.05;69.25
77023;BME280;65952;51.440;-2.054;2023-09-19T03:53:41;99328.63;;;15.06;69.45
77023;BME280;65952;51.440;-2.054;2023-09-19T03:56:06;99337.00;;;14.98;69.98
77023;BME280;65952;51.440;-2.054;2023-09-19T03:58:33;99325.97;;;14.99;69.44
77023;BME280;65952;51.440;-2.054;2023-09-19T04:01:03;99305.28;;;15.11;69.00
77023;BME280;65952;51.440;-2.054;2023-09-19T04:03:28;99322.19;;;15.25;68.80
77023;BME280;65952;51.440;-2.054;2023-09-19T04:06:00;99316.63;;;15.20;68.80
77023;BME280;65952;51.440;-2.054;2023-09-19T04:08:26;99312.66;;;15.23;68.58
77023;BME280;65952;51.440;-2.054;2023-09-19T04:10:52;99318.66;;;15.25;68.49
77023;BME280;65952;51.440;-2.054;2023-09-19T04:13:18;99318.44;;;15.26;68.33
77023;BME280;65952;51.440;-2.054;2023-09-19T04:15:43;99310.44;;;15.38;67.75
77023;BME280;65952;51.440;-2.054;2023-09-19T04:18:09;99305.69;;;15.34;67.92
77023;BME280;65952;51.440;-2.054;2023-09-19T04:20:34;99303.94;;;15.39;67.26
77023;BME280;65952;51.440;-2.054;2023-09-19T04:23:00;99297.44;;;15.47;67.01
77023;BME280;65952;51.440;-2.054;2023-09-19T04:25:25;99310.88;;;15.54;66.71
77023;BME280;65952;51.440;-2.054;2023-09-19T04:27:52;99313.78;;;15.71;65.94
77023;BME280;65952;51.440;-2.054;2023-09-19T04:30:18;99307.03;;;15.62;66.28
77023;BME280;65952;51.440;-2.054;2023-09-19T04:32:43;99314.94;;;15.63;66.18
77023;BME280;65952;51.440;-2.054;2023-09-19T04:35:09;99304.25;;;15.68;65.72
77023;BME280;65952;51.440;-2.054;2023-09-19T04:37:39;99311.78;;;15.66;65.62
77023;BME280;65952;51.440;-2.054;2023-09-19T04:40:08;99315.47;;;15.72;65.50
77023;BME280;65952;51.440;-2.054;2023-09-19T04:42:40;99307.34;;;15.90;65.24
77023;BME280;65952;51.440;-2.054;2023-09-19T04:45:07;99307.94;;;15.74;65.80
77023;BME280;65952;51.440;-2.054;2023-09-19T04:47:35;99307.44;;;15.84;65.47
77023;BME280;65952;51.440;-2.054;2023-09-19T04:50:00;99298.91;;;15.80;65.76
77023;BME280;65952;51.440;-2.054;2023-09-19T04:52:26;99309.44;;;15.88;65.49
77023;BME280;65952;51.440;-2.054;2023-09-19T04:54:51;99304.78;;;15.96;65.77
77023;BME280;65952;51.440;-2.054;2023-09-19T04:57:17;99304.84;;;16.07;65.31
77023;BME280;65952;51.440;-2.054;2023-09-19T04:59:43;99313.13;;;16.13;65.20
77023;BME280;65952;51.440;-2.054;2023-09-19T05:02:08;99299.56;;;16.13;65.53
77023;BME280;65952;51.440;-2.054;2023-09-19T05:04:33;99290.84;;;16.11;65.89
77023;BME280;65952;51.440;-2.054;2023-09-19T05:06:59;99295.00;;;15.95;66.66
77023;BME280;65952;51.440;-2.054;2023-09-19T05:09:26;99295.53;;;16.03;66.58
77023;BME280;65952;51.440;-2.054;2023-09-19T05:11:51;99291.97;;;16.21;66.11
77023;BME280;65952;51.440;-2.054;2023-09-19T05:14:18;99293.81;;;16.21;66.41
77023;BME280;65952;51.440;-2.054;2023-09-19T05:16:44;99288.38;;;16.09;66.90
77023;BME280;65952;51.440;-2.054;2023-09-19T05:19:09;99291.25;;;15.96;68.01
77023;BME280;65952;51.440;-2.054;2023-09-19T05:21:36;99278.41;;;16.21;67.04
77023;BME280;65952;51.440;-2.054;2023-09-19T05:24:05;99282.97;;;16.09;68.05
77023;BME280;65952;51.440;-2.054;2023-09-19T05:26:34;99271.34;;;16.20;67.94
77023;BME280;65952;51.440;-2.054;2023-09-19T05:29:00;99274.19;;;16.25;67.80
77023;BME280;65952;51.440;-2.054;2023-09-19T05:31:27;99267.34;;;16.23;67.84
77023;BME280;65952;51.440;-2.054;2023-09-19T05:33:52;99272.22;;;16.02;68.58
77023;BME280;65952;51.440;-2.054;2023-09-19T05:36:19;99269.09;;;16.17;68.55
77023;BME280;65952;51.440;-2.054;2023-09-19T05:38:45;99261.75;;;16.36;67.73
77023;BME280;65952;51.440;-2.054;2023-09-19T05:41:10;99252.84;;;16.17;68.51
77023;BME280;65952;51.440;-2.054;2023-09-19T05:43:39;99249.56;;;16.15;68.34
77023;BME280;65952;51.440;-2.054;2023-09-19T05:46:06;99250.66;;;16.38;67.71
77023;BME280;65952;51.440;-2.054;2023-09-19T05:48:33;99238.50;;;16.29;67.99
77023;BME280;65952;51.440;-2.054;2023-09-19T05:50:59;99241.44;;;16.27;67.91
77023;BME280;65952;51.440;-2.054;2023-09-19T05:53:24;99242.44;;;16.45;67.53
77023;BME280;65952;51.440;-2.054;2023-09-19T05:55:50;99239.03;;;16.49;67.20
77023;BME280;65952;51.440;-2.054;2023-09-19T05:58:18;99231.97;;;16.48;67.73
77023;BME280;65952;51.440;-2.054;2023-09-19T06:00:45;99235.28;;;16.62;67.17
77023;BME280;65952;51.440;-2.054;2023-09-19T06:03:12;99233.84;;;16.60;67.11
77023;BME280;65952;51.440;-2.054;2023-09-19T06:05:39;99235.38;;;16.67;67.05
77023;BME280;65952;51.440;-2.054;2023-09-19T06:08:06;99226.22;;;16.56;67.25
77023;BME280;65952;51.440;-2.054;2023-09-19T06:10:33;99220.75;;;16.45;67.85
77023;BME280;65952;51.440;-2.054;2023-09-19T06:12:59;99221.97;;;16.61;67.17
77023;BME280;65952;51.440;-2.054;2023-09-19T06:15:25;99220.91;;;16.73;66.57
77023;BME280;65952;51.440;-2.054;2023-09-19T06:17:53;99224.41;;;16.74;66.66
77023;BME280;65952;51.440;-2.054;2023-09-19T06:20:23;99216.63;;;16.42;67.40
77023;BME280;65952;51.440;-2.054;2023-09-19T06:22:50;99208.66;;;16.59;67.24
77023;BME280;65952;51.440;-2.054;2023-09-19T06:25:16;99206.91;;;16.77;66.56
77023;BME280;65952;51.440;-2.054;2023-09-19T06:27:45;99196.16;;;16.70;66.53
77023;BME280;65952;51.440;-2.054;2023-09-19T06:30:11;99208.31;;;16.79;66.37
77023;BME280;65952;51.440;-2.054;2023-09-19T06:32:37;99206.75;;;16.71;66.69
77023;BME280;65952;51.440;-2.054;2023-09-19T06:35:03;99192.16;;;16.61;66.80
77023;BME280;65952;51.440;-2.054;2023-09-19T06:37:32;99188.16;;;16.63;66.68
77023;BME280;65952;51.440;-2.054;2023-09-19T06:39:57;99205.59;;;16.79;66.45
77023;BME280;65952;51.440;-2.054;2023-09-19T06:42:23;99188.97;;;16.64;66.90
77023;BME280;65952;51.440;-2.054;2023-09-19T06:44:49;99185.56;;;16.56;67.14
77023;BME280;65952;51.440;-2.054;2023-09-19T06:47:14;99176.84;;;16.78;66.35
77023;BME280;65952;51.440;-2.054;2023-09-19T06:49:41;99189.19;;;16.62;66.98
77023;BME280;65952;51.440;-2.054;2023-09-19T06:52:09;99188.72;;;16.77;66.54
77023;BME280;65952;51.440;-2.054;2023-09-19T06:54:35;99192.88;;;16.92;66.32
77023;BME280;65952;51.440;-2.054;2023-09-19T06:57:01;99194.06;;;16.96;66.04
77023;BME280;65952;51.440;-2.054;2023-09-19T06:59:26;99186.50;;;16.98;66.01
77023;BME280;65952;51.440;-2.054;2023-09-19T07:01:52;99199.47;;;16.96;65.96
77023;BME280;65952;51.440;-2.054;2023-09-19T07:04:18;99194.53;;;17.04;66.06
77023;BME280;65952;51.440;-2.054;2023-09-19T07:06:49;99187.63;;;17.26;65.46
77023;BME280;65952;51.440;-2.054;2023-09-19T07:09:15;99193.19;;;17.31;65.00
77023;BME280;65952;51.440;-2.054;2023-09-19T07:11:40;99187.56;;;17.49;64.59
77023;BME280;65952;51.440;-2.054;2023-09-19T07:14:06;99184.28;;;17.47;64.78
77023;BME280;65952;51.440;-2.054;2023-09-19T07:16:31;99177.88;;;17.53;64.53
77023;BME280;65952;51.440;-2.054;2023-09-19T07:18:57;99168.13;;;17.41;64.85
77023;BME280;65952;51.440;-2.054;2023-09-19T07:21:23;99180.63;;;17.70;64.00
77023;BME280;65952;51.440;-2.054;2023-09-19T07:23:49;99160.06;;;17.46;64.33
77023;BME280;65952;51.440;-2.054;2023-09-19T07:26:15;99186.50;;;17.50;65.04
77023;BME280;65952;51.440;-2.054;2023-09-19T07:28:41;99168.56;;;17.49;64.70
77023;BME280;65952;51.440;-2.054;2023-09-19T07:31:06;99178.88;;;17.64;64.56
77023;BME280;65952;51.440;-2.054;2023-09-19T07:33:35;99159.44;;;17.84;64.04
77023;BME280;65952;51.440;-2.054;2023-09-19T07:36:01;99165.94;;;17.83;63.96
77023;BME280;65952;51.440;-2.054;2023-09-19T07:38:26;99163.09;;;17.90;63.39
77023;BME280;65952;51.440;-2.054;2023-09-19T07:40:52;99177.34;;;17.97;63.25
77023;BME280;65952;51.440;-2.054;2023-09-19T07:43:17;99167.44;;;17.91;63.39
77023;BME280;65952;51.440;-2.054;2023-09-19T07:45:43;99177.03;;;17.94;63.53
77023;BME280;65952;51.440;-2.054;2023-09-19T07:48:08;99162.63;;;18.10;63.18
77023;BME280;65952;51.440;-2.054;2023-09-19T07:50:39;99173.84;;;18.31;62.49
77023;BME280;65952;51.440;-2.054;2023-09-19T07:53:05;99155.47;;;18.38;62.48
77023;BME280;65952;51.440;-2.054;2023-09-19T07:55:32;99176.88;;;18.51;62.57
77023;BME280;65952;51.440;-2.054;2023-09-19T07:57:59;99180.91;;;19.05;60.74
77023;BME280;65952;51.440;-2.054;2023-09-19T08:00:24;99180.56;;;19.19;60.05
77023;BME280;65952;51.440;-2.054;2023-09-19T08:02:50;99185.03;;;19.08;60.51
77023;BME280;65952;51.440;-2.054;2023-09-19T08:05:17;99185.63;;;19.10;60.27
77023;BME280;65952;51.440;-2.054;2023-09-19T08:07:45;99172.06;;;19.15;60.50
77023;BME280;65952;51.440;-2.054;2023-09-19T08:10:17;99172.31;;;18.91;61.23
77023;BME280;65952;51.440;-2.054;2023-09-19T08:12:45;99163.69;;;18.60;61.87
77023;BME280;65952;51.440;-2.054;2023-09-19T08:15:23;99178.91;;;18.78;61.50
77023;BME280;65952;51.440;-2.054;2023-09-19T08:17:49;99164.69;;;18.54;62.25
77023;BME280;65952;51.440;-2.054;2023-09-19T08:20:15;99164.59;;;18.66;61.72
77023;BME280;65952;51.440;-2.054;2023-09-19T08:22:47;99162.31;;;18.41;62.41
77023;BME280;65952;51.440;-2.054;2023-09-19T08:25:17;99151.38;;;18.35;62.95
77023;BME280;65952;51.440;-2.054;2023-09-19T08:27:46;99146.09;;;18.29;62.96
77023;BME280;65952;51.440;-2.054;2023-09-19T08:30:19;99149.88;;;18.28;63.54
77023;BME280;65952;51.440;-2.054;2023-09-19T08:32:49;99129.19;;;18.44;62.53
77023;BME280;65952;51.440;-2.054;2023-09-19T08:35:14;99141.47;;;18.86;61.96
77023;BME280;65952;51.440;-2.054;2023-09-19T08:37:40;99154.38;;;19.35;60.52
77023;BME280;65952;51.440;-2.054;2023-09-19T08:40:05;99155.75;;;19.64;59.54
77023;BME280;65952;51.440;-2.054;2023-09-19T08:42:54;99151.06;;;20.47;57.08
77023;BME280;65952;51.440;-2.054;2023-09-19T08:45:21;99168.34;;;21.06;55.63
77023;BME280;65952;51.440;-2.054;2023-09-19T08:50:30;99169.38;;;20.52;56.62
77023;BME280;65952;51.440;-2.054;2023-09-19T08:53:00;99162.91;;;19.71;58.87
77023;BME280;65952;51.440;-2.054;2023-09-19T08:55:27;99166.47;;;19.71;59.32
77023;BME280;65952;51.440;-2.054;2023-09-19T08:57:59;99162.19;;;19.80;59.24
77023;BME280;65952;51.440;-2.054;2023-09-19T09:00:26;99155.75;;;19.37;60.15
77023;BME280;65952;51.440;-2.054;2023-09-19T09:02:54;99164.56;;;19.49;60.41
77023;BME280;65952;51.440;-2.054;2023-09-19T09:05:21;99149.88;;;19.23;61.29
77023;BME280;65952;51.440;-2.054;2023-09-19T09:07:48;99163.34;;;18.91;62.38
77023;BME280;65952;51.440;-2.054;2023-09-19T09:10:20;99159.88;;;18.78;62.59
77023;BME280;65952;51.440;-2.054;2023-09-19T09:12:49;99141.91;;;18.77;62.86
77023;BME280;65952;51.440;-2.054;2023-09-19T09:15:18;99149.19;;;18.72;63.13
77023;BME280;65952;51.440;-2.054;2023-09-19T09:17:47;99150.13;;;18.82;63.02
77023;BME280;65952;51.440;-2.054;2023-09-19T09:20:13;99146.78;;;19.14;62.56
77023;BME280;65952;51.440;-2.054;2023-09-19T09:22:38;99135.53;;;19.55;60.99
77023;BME280;65952;51.440;-2.054;2023-09-19T09:25:09;99133.41;;;20.60;57.87
77023;BME280;65952;51.440;-2.054;2023-09-19T09:27:34;99156.75;;;21.47;55.30
77023;BME280;65952;51.440;-2.054;2023-09-19T09:30:00;99143.59;;;21.33;55.35
77023;BME280;65952;51.440;-2.054;2023-09-19T09:32:27;99130.41;;;21.04;56.02
77023;BME280;65952;51.440;-2.054;2023-09-19T09:35:03;99151.72;;;20.65;57.70
77023;BME280;65952;51.440;-2.054;2023-09-19T09:37:34;99148.34;;;20.47;58.50
77023;BME280;65952;51.440;-2.054;2023-09-19T09:40:03;99147.06;;;20.22;59.11
77023;BME280;65952;51.440;-2.054;2023-09-19T09:42:55;99143.59;;;20.32;58.53
77023;BME280;65952;51.440;-2.054;2023-09-19T09:45:24;99172.56;;;20.43;58.46
77023;BME280;65952;51.440;-2.054;2023-09-19T09:47:59;99162.16;;;20.35;58.48
77023;BME280;65952;51.440;-2.054;2023-09-19T09:50:33;99165.31;;;20.22;59.37
77023;BME280;65952;51.440;-2.054;2023-09-19T09:53:24;99163.19;;;19.96;60.33
77023;BME280;65952;51.440;-2.054;2023-09-19T09:55:59;99164.63;;;20.04;59.91
77023;BME280;65952;51.440;-2.054;2023-09-19T09:58:25;99173.94;;;19.59;61.76
77023;BME280;65952;51.440;-2.054;2023-09-19T10:00:55;99162.66;;;19.72;61.47
77023;BME280;65952;51.440;-2.054;2023-09-19T10:03:31;99172.00;;;19.81;61.57
77023;BME280;65952;51.440;-2.054;2023-09-19T10:05:57;99180.72;;;19.56;62.27
77023;BME280;65952;51.440;-2.054;2023-09-19T10:08:23;99181.97;;;19.71;62.15
77023;BME280;65952;51.440;-2.054;2023-09-19T10:10:49;99190.50;;;19.52;62.65
77023;BME280;65952;51.440;-2.054;2023-09-19T10:13:19;99186.06;;;19.46;63.43
77023;BME280;65952;51.440;-2.054;2023-09-19T10:15:49;99184.84;;;19.37;63.41
77023;BME280;65952;51.440;-2.054;2023-09-19T10:18:21;99178.97;;;19.23;64.15
77023;BME280;65952;51.440;-2.054;2023-09-19T10:20:47;99183.72;;;19.32;64.45
77023;BME280;65952;51.440;-2.054;2023-09-19T10:23:14;99176.63;;;19.09;64.65
77023;BME280;65952;51.440;-2.054;2023-09-19T10:25:41;99176.53;;;19.04;65.15
77023;BME280;65952;51.440;-2.054;2023-09-19T10:28:09;99167.75;;;19.41;64.06
77023;BME280;65952;51.440;-2.054;2023-09-19T10:30:46;99187.34;;;18.99;65.96
77023;BME280;65952;51.440;-2.054;2023-09-19T10:33:14;99179.19;;;18.99;66.94
77023;BME280;65952;51.440;-2.054;2023-09-19T10:35:43;99180.28;;;18.98;67.00
77023;BME280;65952;51.440;-2.054;2023-09-19T10:38:13;99179.47;;;18.80;67.73
77023;BME280;65952;51.440;-2.054;2023-09-19T10:40:40;99181.03;;;18.93;67.77
77023;BME280;65952;51.440;-2.054;2023-09-19T10:43:20;99195.97;;;18.91;67.52
77023;BME280;65952;51.440;-2.054;2023-09-19T10:45:48;99180.56;;;18.79;68.48
77023;BME280;65952;51.440;-2.054;2023-09-19T10:48:15;99164.31;;;18.84;68.44
77023;BME280;65952;51.440;-2.054;2023-09-19T10:51:09;99177.78;;;19.13;68.01
77023;BME280;65952;51.440;-2.054;2023-09-19T10:53:53;99166.75;;;19.03;67.47
77023;BME280;65952;51.440;-2.054;2023-09-19T10:56:33;99166.63;;;19.15;67.33
77023;BME280;65952;51.440;-2.054;2023-09-19T11:02:15;99164.66;;;19.32;66.82
77023;BME280;65952;51.440;-2.054;2023-09-19T11:04:42;99149.72;;;19.57;66.34
77023;BME280;65952;51.440;-2.054;2023-09-19T11:09:46;99156.38;;;19.94;65.33
77023;BME280;65952;51.440;-2.054;2023-09-19T11:12:57;99149.22;;;19.88;65.49
77023;BME280;65952;51.440;-2.054;2023-09-19T11:15:06;99155.66;;;19.81;65.72
77023;BME280;65952;51.440;-2.054;2023-09-19T11:17:37;99147.84;;;19.63;66.76
77023;BME280;65952;51.440;-2.054;2023-09-19T11:30:46;99127.56;;;20.84;62.87
77023;BME280;65952;51.440;-2.054;2023-09-19T11:33:29;99129.31;;;21.05;63.22
77023;BME280;65952;51.440;-2.054;2023-09-19T11:49:16;99143.66;;;20.42;65.87
77023;BME280;65952;51.440;-2.054;2023-09-19T11:51:46;99140.97;;;20.48;65.42
77023;BME280;65952;51.440;-2.054;2023-09-19T11:54:15;99157.25;;;20.37;65.40
77023;BME280;65952;51.440;-2.054;2023-09-19T11:56:45;99161.97;;;20.14;66.32
77023;BME280;65952;51.440;-2.054;2023-09-19T11:59:11;99144.66;;;19.98;66.84
77023;BME280;65952;51.440;-2.054;2023-09-19T12:01:38;99142.97;;;20.25;66.55
77023;BME280;65952;51.440;-2.054;2023-09-19T12:04:11;99152.38;;;20.39;66.68
77023;BME280;65952;51.440;-2.054;2023-09-19T12:06:37;99156.50;;;20.85;65.53
77023;BME280;65952;51.440;-2.054;2023-09-19T12:09:13;99144.06;;;21.04;64.23
77023;BME280;65952;51.440;-2.054;2023-09-19T12:11:42;99151.38;;;20.93;64.18
77023;BME280;65952;51.440;-2.054;2023-09-19T12:14:11;99138.66;;;21.15;63.80
77023;BME280;65952;51.440;-2.054;2023-09-19T12:16:37;99142.44;;;21.14;63.31
77023;BME280;65952;51.440;-2.054;2023-09-19T12:19:19;99138.53;;;20.94;64.03
77023;BME280;65952;51.440;-2.054;2023-09-19T12:21:54;99137.16;;;20.91;64.15
77023;BME280;65952;51.440;-2.054;2023-09-19T12:24:19;99138.03;;;20.97;63.95
77023;BME280;65952;51.440;-2.054;2023-09-19T12:26:46;99146.69;;;20.89;64.52
77023;BME280;65952;51.440;-2.054;2023-09-19T12:29:21;99142.84;;;20.80;65.05
77023;BME280;65952;51.440;-2.054;2023-09-19T12:31:54;99149.44;;;20.94;65.06
77023;BME280;65952;51.440;-2.054;2023-09-19T12:34:30;99147.72;;;20.40;66.78
77023;BME280;65952;51.440;-2.054;2023-09-19T12:37:07;99153.44;;;20.38;66.64
77023;BME280;65952;51.440;-2.054;2023-09-19T12:39:42;99165.09;;;20.66;65.87
77023;BME280;65952;51.440;-2.054;2023-09-19T12:42:10;99158.44;;;20.46;66.68
77023;BME280;65952;51.440;-2.054;2023-09-19T12:44:37;99160.34;;;20.51;67.35
77023;BME280;65952;51.440;-2.054;2023-09-19T12:47:15;99164.41;;;20.49;66.95
77023;BME280;65952;51.440;-2.054;2023-09-19T12:50:07;99155.03;;;20.29;67.89
77023;BME280;65952;51.440;-2.054;2023-09-19T12:52:41;99150.19;;;20.41;66.89
77023;BME280;65952;51.440;-2.054;2023-09-19T12:55:07;99151.41;;;20.23;67.72
77023;BME280;65952;51.440;-2.054;2023-09-19T12:57:35;99141.69;;;20.33;68.01
77023;BME280;65952;51.440;-2.054;2023-09-19T13:00:04;99130.47;;;20.24;68.05
77023;BME280;65952;51.440;-2.054;2023-09-19T13:02:37;99143.84;;;20.30;67.83
77023;BME280;65952;51.440;-2.054;2023-09-19T13:05:05;99152.91;;;20.41;67.61
77023;BME280;65952;51.440;-2.054;2023-09-19T13:07:42;99150.31;;;20.19;68.45
77023;BME280;65952;51.440;-2.054;2023-09-19T13:10:14;99151.13;;;20.20;67.96
77023;BME280;65952;51.440;-2.054;2023-09-19T13:12:42;99145.72;;;20.25;67.86
77023;BME280;65952;51.440;-2.054;2023-09-19T13:15:13;99141.81;;;20.16;68.34
77023;BME280;65952;51.440;-2.054;2023-09-19T13:17:45;99142.06;;;20.09;68.47
77023;BME280;65952;51.440;-2.054;2023-09-19T13:20:25;99141.69;;;20.33;68.10
77023;BME280;65952;51.440;-2.054;2023-09-19T13:22:53;99139.25;;;20.36;68.02
77023;BME280;65952;51.440;-2.054;2023-09-19T13:25:23;99131.97;;;20.47;67.26
77023;BME280;65952;51.440;-2.054;2023-09-19T13:27:51;99136.31;;;20.43;67.74
77023;BME280;65952;51.440;-2.054;2023-09-19T13:30:18;99137.06;;;20.33;68.02
77023;BME280;65952;51.440;-2.054;2023-09-19T13:32:44;99131.50;;;20.55;67.61
77023;BME280;65952;51.440;-2.054;2023-09-19T13:35:12;99141.88;;;20.21;68.80
77023;BME280;65952;51.440;-2.054;2023-09-19T13:37:39;99145.47;;;20.26;68.63
77023;BME280;65952;51.440;-2.054;2023-09-19T13:40:13;99158.47;;;20.19;68.64
77023;BME280;65952;51.440;-2.054;2023-09-19T13:42:39;99162.50;;;20.11;69.98
77023;BME280;65952;51.440;-2.054;2023-09-19T13:45:05;99146.06;;;20.01;69.95